This is the latest recevied weather packets stored in our database for station/object W6UA-13. If no packets are shown the sender has not sent any weather packets the latest 10 day(s).
| Time | Temp. | Humidity | Pressure | Rain* | Wind** | Luminosity | Snow |
|---|---|---|---|---|---|---|---|
| 1777394994 | 16.67° C | 63% | 1018.8 hPa | 0 mm | - | 584 W/m² | - |
| 1777394094 | 15.56° C | 66% | 1018.9 hPa | 0 mm | - | 536 W/m² | - |
| 1777392294 | 14.44° C | 70% | 1018.9 hPa | 0 mm | - | 445 W/m² | - |
| 1777390494 | 12.22° C | 76% | 1018.5 hPa | 0 mm | - | 345 W/m² | - |
| 1777389594 | 11.11° C | 81% | 1018.4 hPa | 0 mm | - | 301 W/m² | - |
| 1777386894 | 8.89° C | 88% | 1017.9 hPa | 0 mm | - | 148 W/m² | - |
| 1777383294 | 6.67° C | 89% | 1017.2 hPa | 0 mm | - | 14 W/m² | - |
| 1777382394 | 6.11° C | 89% | 1017 hPa | 0 mm | - | 0 W/m² | - |
| 1777381494 | 5.56° C | 88% | 1017 hPa | 0 mm | - | 0 W/m² | - |
| 1777380594 | 5.56° C | 88% | 1017 hPa | 0 mm | - | 0 W/m² | - |
| 1777379694 | 5.56° C | 88% | 1017 hPa | 0 mm | - | 0 W/m² | - |
| 1777378795 | 6.11° C | 88% | 1017 hPa | 0 mm | - | 0 W/m² | - |
| 1777377894 | 6.11° C | 88% | 1017 hPa | 0 mm | - | 0 W/m² | - |
| 1777376995 | 6.67° C | 88% | 1017.3 hPa | 0 mm | - | 0 W/m² | - |
| 1777375194 | 6.67° C | 88% | 1017 hPa | 0 mm | - | 0 W/m² | - |
| 1777372494 | 6.67° C | 87% | 1017 hPa | 0 mm | - | 0 W/m² | - |
| 1777371594 | 6.67° C | 87% | 1017.5 hPa | 0 mm | - | 0 W/m² | - |
| 1777370694 | 7.22° C | 87% | 1017.4 hPa | 0 mm | - | 0 W/m² | - |
| 1777369794 | 7.22° C | 87% | 1017.5 hPa | 0 mm | - | 0 W/m² | - |
| 1777368894 | 7.22° C | 87% | 1017.6 hPa | 0 mm | - | 0 W/m² | - |
| 1777367994 | 7.78° C | 87% | 1017.7 hPa | 0 mm | - | 0 W/m² | - |
| 1777367094 | 7.78° C | 86% | 1018 hPa | 0 mm | - | 0 W/m² | - |
| 1777365295 | 7.78° C | 85% | 1018.1 hPa | 0 mm | - | 0 W/m² | - |
| 1777364394 | 8.33° C | 85% | 1018.4 hPa | 0 mm | - | 0 W/m² | - |
| 1777363495 | 8.89° C | 85% | 1018.4 hPa | 0 mm | - | 0 W/m² | - |
* Rain latest hour (hover to see other rain measurements)
** Current wind speed in m/s (hover to see current wind gust speed)